Logo AVAMET
Benvolgut visitant, si us plau, ingressa Recuperar contrasenya
AVAMET paisatges

Xacarella centre

Dades diàries. Acumulats / Últims 30 dies disponibles

Data Temperatura (°C) Humitat rel. (%) Pressió rel. (hPa) Vent (km/h) Precipitació
Mínima Mitjana Màxima Amplitud
tèrmica
Mínima Mitjana Màxima Mínima Mitjana Màxima Predom. Mitjana Ràfega
màxima
Total
(mm)
Índex-n
Mínima Mitjana Màxima Mínima Mitjana Màxima n
0 a 1
P0 max
mm 5'
Dades mensuals acumulades fins l'últim dia disponible
02/2021 6,7 10,0 17,6 14,4 16,2 19,3 25,5 18,8 24 69 94 1.002 1.019 1.036   5,4 62,8 0,0
Dades anuals acumulades fins l'últim dia disponible
2021 1,6 8,5 17,6 12,9 8,9 18,0 28,1 26,5 20 65 94 1.002 1.018 1.036   6,1 62,8 31,8
Últims 30 dies disponibles
27-02-2021 10,7     12,9     16,4 5,7 58 74 85 1.024 1.026 1.029 E 3,7 17,7 0,0
26-02-2021 12,8     14,2     16,4 3,6 64 74 82 1.028 1.030 1.031 ENE 7,9 30,6 0,0
25-02-2021 8,9     13,2     16,3 7,4 70 81 91 1.029 1.031 1.032 ENE 6,0 25,7 0,0
24-02-2021 10,2     13,5     17,7 7,5 63 78 87 1.032 1.034 1.036 SE 4,7 27,4 0,0
23-02-2021 7,8     12,7     18,0 10,2 48 70 87 1.026 1.032 1.036 SSO 4,3 29,0 0,0
22-02-2021 10,8     14,0     17,5 6,7 40 55 79 1.010 1.018 1.026 O 7,7 33,8 0,0
21-02-2021 9,9     13,8     18,4 8,5 63 77 90 1.004 1.008 1.015 SSO 3,7 33,8 0,0
20-02-2021 9,9     13,2     16,2 6,3 68 84 92 1.016 1.019 1.021 E 4,8 24,1 0,0
19-02-2021 7,1     12,2     19,7 12,6 59 84 94 1.019 1.021 1.023 SE 2,8 22,5 0,0
18-02-2021 9,5     13,3     19,3 9,8 54 79 91 1.017 1.020 1.022 SSE 3,1 17,7 0,0
17-02-2021 7,6     12,8     19,1 11,5 47 74 90 1.022 1.024 1.026 SE 2,4 19,3 0,0
16-02-2021 6,7     11,7     19,1 12,4 51 76 89 1.026 1.030 1.034 S 3,0 17,7 0,0
15-02-2021 8,7     13,2     16,7 8,0 57 77 91 1.034 1.035 1.036 SE 3,7 24,1 0,0
14-02-2021 7,5     12,8     17,7 10,2 57 78 88 1.027 1.031 1.035 SSE 4,9 30,6 0,0
13-02-2021 11,8     17,4     22,6 10,8 30 52 84 1.022 1.024 1.027 SO 7,7 35,4 0,0
12-02-2021 9,4     18,3     23,9 14,5 24 55 78 1.017 1.019 1.023 O 8,0 51,5 0,0
11-02-2021 9,4     16,1     23,7 14,3 44 60 74 1.018 1.019 1.021 SSO 3,4 22,5 0,0
10-02-2021 12,1     16,2     22,8 10,7 27 53 75 1.008 1.011 1.018 OSO 6,5 38,6 0,0
09-02-2021 6,9     11,8     16,2 9,3 54 67 76 1.006 1.009 1.011 SSO 2,4 24,1 0,0
08-02-2021 11,2     14,8     20,2 9,0 32 51 70 1.004 1.007 1.010 OSO 7,7 38,6 0,0
07-02-2021 10,3     14,4     18,5 8,2 41 55 69 1.005 1.007 1.009 O 10,1 46,7 0,0
06-02-2021 9,8     15,0     20,7 10,9 40 66 86 1.002 1.004 1.005 SO 4,8 32,2 0,0
05-02-2021 8,9     13,7     17,8 8,9 66 82 93 1.002 1.007 1.012 SSE 4,6 27,4 0,0
04-02-2021 9,8     12,8     17,1 7,3 72 84 93 1.011 1.013 1.014 SE 3,5 19,3 0,0
03-02-2021 11,6     15,0     21,1 9,5 42 66 84 1.013 1.015 1.016 SO 3,2 20,9 0,0
02-02-2021 13,3     17,6     23,6 10,3 38 56 75 1.015 1.017 1.019 O 5,3 29,0 0,0
01-02-2021 17,6     21,1     25,5 7,9 31 43 56 1.010 1.013 1.017 ONO 17,0 62,8 0,0
31-01-2021 13,9     17,2     21,2 7,3 42 49 60 1.011 1.013 1.015 O 14,8 45,1 0,0
30-01-2021 12,3     17,3     22,6 10,3 30 49 69 1.010 1.013 1.018 OSO 11,3 57,9 0,0
29-01-2021 12,3     19,0     28,1 15,8 20 52 74 1.017 1.020 1.022 SSO 3,8 24,1 0,0
Últims 13 mesos disponibles
01/2021 1,6 7,2 15,8 11,5 8,9 16,8 28,1 26,5 41 63 92 1.005 1.018 1.028 O 6,7 57,9 31,8
12/2020 2,0 7,9 14,8 12,7 13,3 18,3 25,1 23,1 41 62 80 999 1.016 1.029 O 6,6 56,3 1,9
02/2020 4,4 8,5 13,0 14,7 15,9 21,9 26,8 22,4 41 71 90 1.016 1.027 1.034 OSO 4,5 41,8 5,8
01/2020 4,2 6,7 8,8 11,2 10,3 16,5 21,1 16,9 62 75 90 1.014 1.024 1.031 OSO 4,1 56,3 59,8
12/2019 6,4 10,1 16,3 13,8 10,3 18,1 23,1 16,7 43 73 91 1.006 1.019 1.033 OSO 5,5 54,7 34,6
11/2019 6,6 11,6 19,1 15,6 15,4 20,2 28,2 21,6 43 58 91 1.002 1.013 1.020 OSO 8,1 64,4 10,0
10/2019 12,8 16,9 20,7 21,6 20,7 27,4 34,5 21,7 46 68 84 1.009 1.017 1.022 OSO 4,3 38,6 0,6
09/2019 16,1 20,2 22,9 23,9 21,5 28,8 34,0 17,9 49 76 91 1.011 1.018 1.023 SSO 5,2 54,7 205,0
08/2019 19,6 22,3 25,3 27,0 29,2 32,5 40,8 21,2 47 70 80 1.011 1.016 1.021 SSE 5,3 49,9 42,0
07/2019 20,3 22,3 25,6 27,7 29,4 33,1 39,3 19,0 37 61 74 1.007 1.014 1.021 SSE 6,8 48,3 0,0
06/2019 12,9 18,0 22,0 23,7 24,3 29,4 35,6 22,7 37 59 73 1.009 1.016 1.023 SSE 6,4 51,5 1,0
05/2019 12,5 15,1 19,4 20,1 22,9 25,6 31,3 18,8 45 63 74 1.007 1.017 1.026 S 6,3 46,7 1,8
Tots els anys disponibles
2019 6,4 17,5 25,6 22,2 10,3 27,4 40,8 34,4 37 66 91 1.002 1.016 1.033 SSE 6,0 64,4 295,0
Temperatura (°C)
Humitat relativa (%)
Velocitat del vent i ràfega màxima (km/h)
Direcció del vent (°)
Pressió (hPa)
Precipitació (mm)
Nota sobre les dades: s'avisa a l'usuari de la provisionalitat i no oficialitat d'aquestes dades
Logo AVAMET blanc
Web allotjada a Sollutia
Llicència de Creative CommonsLa web d'AVAMET i els seus continguts estan subjectes a una llicència de
Reconeixement - No Comercial - Compartir igual
Avís legal - Política de privacitat - Política de cookies
NOVES ESTACIONS: Barx - la Falaguera (Soci), l'Alqueria d'Asnar (Soci), Barx (Soci), Font de la Figuera - El Carrascal, Sagunt - Casc Urbà, Tous & Casinos - Aj. (Inforatge), Alcoi - Círculo Industrial (Soci), Requena - San Antonio (Soci), Beniatjar (Soci), Elx - Carrús (Soci), Castelló de la Plana - Serradal (Soci), Teulada - El Pla (Soci), Dénia - la Xara (Soci) - - -